Time;durP1;ratioP1;P1;durP2;ratioP2;P2;SDS_P1;SDS_P2;PMS_P1;PMS_P2;Temp;Humidity;BMP_temperature;BMP_pressure;BME280_temperature;BME280_humidity;BME280_pressure;Samples;Min_cycle;Max_cycle;Signal;HPM_P1;HPM_P2
2021/05/21 00:02:17;;;;;;;;;;;12.00;76.20;;;;;;5069349;28;19960;-64
2021/05/21 00:04:43;;;;;;;;;;;12.00;76.20;;;;;;5070216;28;20408;-64
2021/05/21 00:07:09;;;;;;;;;;;12.00;76.10;;;;;;5070288;28;19920;-64
2021/05/21 00:09:34;;;;;;;;;;;11.90;76.00;;;;;;5070649;28;19971;-64
2021/05/21 00:12:00;;;;;;;;;;;11.90;76.00;;;;;;5070629;28;19917;-64
2021/05/21 00:14:25;;;;;;;;;;;11.70;76.10;;;;;;5069441;28;19921;-64
2021/05/21 00:16:53;;;;;;;;;;;11.70;76.20;;;;;;5069219;28;19952;-64
2021/05/21 00:19:18;;;;;;;;;;;11.60;76.40;;;;;;5068553;28;19931;-64
2021/05/21 00:21:44;;;;;;;;;;;11.40;77.10;;;;;;5070463;28;19912;-64
2021/05/21 00:24:09;;;;;;;;;;;11.40;76.80;;;;;;5070045;28;19974;-64
2021/05/21 00:26:35;;;;;;;;;;;11.20;76.90;;;;;;5070120;28;20022;-64
2021/05/21 00:29:00;;;;;;;;;;;11.20;77.10;;;;;;5070529;28;19967;-64
2021/05/21 00:31:26;;;;;;;;;;;11.00;77.20;;;;;;5070521;28;19923;-64
2021/05/21 00:33:51;;;;;;;;;;;11.00;77.50;;;;;;5069402;28;20366;-64
2021/05/21 00:36:17;;;;;;;;;;;10.90;77.70;;;;;;5070553;28;19963;-64
2021/05/21 00:38:43;;;;;;;;;;;10.80;77.90;;;;;;5072439;28;19958;-64
2021/05/21 00:41:08;;;;;;;;;;;10.80;78.10;;;;;;5073030;28;19916;-64
2021/05/21 00:43:34;;;;;;;;;;;10.70;78.30;;;;;;5073843;28;19977;-64
2021/05/21 00:46:00;;;;;;;;;;;10.70;78.40;;;;;;5072468;28;19916;-64
2021/05/21 00:48:26;;;;;;;;;;;10.60;78.50;;;;;;5074012;28;19916;-64
2021/05/21 00:50:52;;;;;;;;;;;10.60;78.70;;;;;;5072716;28;20315;-64
2021/05/21 00:53:18;;;;;;;;;;;10.50;78.80;;;;;;5072996;28;19919;-64
2021/05/21 00:55:43;;;;;;;;;;;10.50;79.10;;;;;;5072735;28;19920;-64
2021/05/21 00:58:09;;;;;;;;;;;10.50;79.30;;;;;;5072244;28;19917;-64
2021/05/21 01:00:34;;;;;;;;;;;10.50;79.30;;;;;;5073791;28;19921;-64
2021/05/21 01:03:00;;;;;;;;;;;10.40;79.30;;;;;;5073336;28;20011;-64
2021/05/21 01:05:26;;;;;;;;;;;10.40;79.60;;;;;;5073415;28;20426;-64
2021/05/21 01:07:51;;;;;;;;;;;10.30;79.70;;;;;;5073792;28;20137;-62
2021/05/21 01:10:17;;;;;;;;;;;10.30;79.90;;;;;;5073268;28;19917;-63
2021/05/21 01:12:42;;;;;;;;;;;10.20;80.10;;;;;;5073759;28;20007;-62
2021/05/21 01:15:10;;;;;;;;;;;10.20;80.30;;;;;;5072969;28;19924;-62
2021/05/21 01:17:36;;;;;;;;;;;10.20;80.50;;;;;;5073277;28;20015;-62
2021/05/21 01:20:04;;;;;;;;;;;10.30;80.70;;;;;;5073580;28;20409;-62
2021/05/21 01:22:29;;;;;;;;;;;10.20;80.70;;;;;;5073581;28;19916;-62
2021/05/21 01:24:55;;;;;;;;;;;10.20;80.60;;;;;;5071329;28;19959;-62
2021/05/21 01:27:20;;;;;;;;;;;10.20;80.60;;;;;;5073271;28;19916;-62
2021/05/21 01:29:46;;;;;;;;;;;10.10;80.70;;;;;;5073193;28;19959;-62
2021/05/21 01:32:12;;;;;;;;;;;10.10;80.90;;;;;;5071830;28;19939;-64
2021/05/21 01:34:38;;;;;;;;;;;10.00;81.00;;;;;;5072753;28;20281;-64
2021/05/21 01:37:12;;;;;;;;;;;10.00;81.30;;;;;;5072726;28;19943;-64
2021/05/21 01:39:38;;;;;;;;;;;9.90;81.30;;;;;;5073358;28;19946;-64
2021/05/21 01:42:04;;;;;;;;;;;9.90;81.40;;;;;;5071340;28;19960;-64
2021/05/21 01:44:29;;;;;;;;;;;9.80;81.60;;;;;;5072458;28;20429;-64
2021/05/21 01:46:55;;;;;;;;;;;9.80;81.80;;;;;;5073020;28;20011;-64
2021/05/21 01:49:20;;;;;;;;;;;9.70;82.00;;;;;;5072661;28;20323;-64
2021/05/21 01:51:53;;;;;;;;;;;9.70;82.20;;;;;;5072280;28;20392;-64
2021/05/21 01:54:19;;;;;;;;;;;9.70;82.30;;;;;;5070901;28;19920;-64
2021/05/21 01:56:48;;;;;;;;;;;9.70;82.30;;;;;;5072234;28;19916;-64
2021/05/21 01:59:14;;;;;;;;;;;9.60;82.40;;;;;;5073083;28;19916;-64
2021/05/21 02:01:39;;;;;;;;;;;9.60;82.50;;;;;;5073321;28;20440;-64
2021/05/21 02:04:05;;;;;;;;;;;9.50;82.60;;;;;;5071506;28;20011;-64
2021/05/21 02:06:33;;;;;;;;;;;9.50;82.80;;;;;;5073244;28;20010;-62
2021/05/21 02:08:58;;;;;;;;;;;9.50;83.00;;;;;;5073210;28;19924;-62
2021/05/21 02:11:24;;;;;;;;;;;9.50;83.10;;;;;;5072830;28;19916;-62
2021/05/21 02:13:49;;;;;;;;;;;9.40;83.20;;;;;;5072417;28;19924;-62
2021/05/21 02:16:15;;;;;;;;;;;9.40;83.30;;;;;;5073307;28;19935;-62
2021/05/21 02:18:42;;;;;;;;;;;9.40;83.40;;;;;;5072646;28;20403;-62
2021/05/21 02:21:08;;;;;;;;;;;9.40;83.60;;;;;;5072964;28;19944;-62
2021/05/21 02:23:34;;;;;;;;;;;9.40;83.80;;;;;;5071117;28;20005;-62
2021/05/21 02:25:59;;;;;;;;;;;9.30;83.80;;;;;;5072520;28;20372;-62
2021/05/21 02:28:25;;;;;;;;;;;9.30;84.00;;;;;;5071575;28;19935;-62
2021/05/21 02:30:50;;;;;;;;;;;9.30;84.20;;;;;;5072500;28;19930;-64
2021/05/21 02:33:16;;;;;;;;;;;9.30;84.40;;;;;;5072340;28;20007;-64
2021/05/21 02:35:41;;;;;;;;;;;9.30;84.50;;;;;;5072734;28;19999;-64
2021/05/21 02:38:07;;;;;;;;;;;9.30;84.50;;;;;;5072160;28;19959;-64
2021/05/21 02:40:32;;;;;;;;;;;9.30;84.70;;;;;;5072726;28;19917;-64
2021/05/21 02:42:58;;;;;;;;;;;9.20;84.60;;;;;;5071911;28;19924;-64
2021/05/21 02:45:24;;;;;;;;;;;9.20;84.80;;;;;;5072068;28;19916;-64
2021/05/21 02:47:50;;;;;;;;;;;9.20;85.00;;;;;;5071221;28;19921;-64
2021/05/21 02:50:15;;;;;;;;;;;9.20;85.10;;;;;;5072058;28;20300;-64
2021/05/21 02:52:41;;;;;;;;;;;9.20;85.50;;;;;;5071010;28;19920;-64
2021/05/21 02:55:07;;;;;;;;;;;9.20;85.70;;;;;;5070658;28;20365;-64
2021/05/21 02:57:33;;;;;;;;;;;9.30;85.90;;;;;;5071829;28;20002;-64
2021/05/21 02:59:58;;;;;;;;;;;9.40;85.90;;;;;;5070265;28;20292;-64
2021/05/21 03:02:24;;;;;;;;;;;9.50;85.90;;;;;;5072573;28;20272;-64
2021/05/21 03:04:53;;;;;;;;;;;9.50;85.80;;;;;;5072534;28;19917;-64
2021/05/21 03:07:18;;;;;;;;;;;9.50;85.70;;;;;;5072185;28;19917;-64
2021/05/21 03:09:46;;;;;;;;;;;9.50;86.00;;;;;;5072577;28;19917;-64
2021/05/21 03:12:11;;;;;;;;;;;9.60;86.20;;;;;;5073949;28;20043;-64
2021/05/21 03:14:37;;;;;;;;;;;9.60;86.10;;;;;;5072821;28;19920;-64
2021/05/21 03:17:03;;;;;;;;;;;9.70;85.90;;;;;;5073474;28;19930;-64
2021/05/21 03:19:29;;;;;;;;;;;9.70;86.00;;;;;;5072246;28;20007;-64
2021/05/21 03:21:54;;;;;;;;;;;9.80;86.00;;;;;;5072085;28;20238;-64
2021/05/21 03:24:20;;;;;;;;;;;9.80;85.80;;;;;;5071695;28;20376;-64
2021/05/21 03:26:45;;;;;;;;;;;9.80;85.60;;;;;;5071694;28;19960;-64
2021/05/21 03:29:13;;;;;;;;;;;9.80;85.80;;;;;;5071556;28;19916;-64
2021/05/21 03:31:39;;;;;;;;;;;9.70;85.80;;;;;;5053974;28;19916;-64
2021/05/21 03:34:05;;;;;;;;;;;9.70;85.90;;;;;;5071360;28;19917;-64
2021/05/21 03:36:30;;;;;;;;;;;9.70;86.00;;;;;;5071508;28;20015;-64
2021/05/21 03:38:56;;;;;;;;;;;9.70;86.40;;;;;;5070463;28;19978;-64
2021/05/21 03:41:21;;;;;;;;;;;9.70;86.60;;;;;;5071108;28;19917;-62
2021/05/21 03:43:47;;;;;;;;;;;9.80;86.80;;;;;;5071201;28;20319;-64
2021/05/21 03:46:13;;;;;;;;;;;9.90;86.80;;;;;;5070084;28;20331;-64
2021/05/21 03:48:38;;;;;;;;;;;10.00;86.80;;;;;;5071297;28;19917;-64
2021/05/21 03:51:04;;;;;;;;;;;10.10;86.70;;;;;;5071598;28;19917;-64
2021/05/21 03:53:30;;;;;;;;;;;10.20;86.80;;;;;;5069075;28;19923;-64
2021/05/21 03:55:55;;;;;;;;;;;10.30;86.70;;;;;;5053366;28;19927;-64
2021/05/21 03:58:21;;;;;;;;;;;10.40;86.70;;;;;;5071579;28;20015;-62
2021/05/21 04:00:47;;;;;;;;;;;10.50;86.50;;;;;;5069760;28;19917;-62
2021/05/21 04:03:13;;;;;;;;;;;10.60;86.00;;;;;;5069729;28;19921;-63
2021/05/21 04:05:38;;;;;;;;;;;10.60;85.80;;;;;;5071529;28;20034;-62
2021/05/21 04:08:04;;;;;;;;;;;10.60;85.90;;;;;;5069676;28;19947;-63
2021/05/21 04:10:32;;;;;;;;;;;10.60;85.90;;;;;;5071601;28;19912;-63
2021/05/21 04:12:57;;;;;;;;;;;10.70;85.80;;;;;;5073173;28;19942;-63
2021/05/21 04:15:23;;;;;;;;;;;10.70;85.80;;;;;;5075566;28;19921;-63
2021/05/21 04:17:48;;;;;;;;;;;10.70;85.60;;;;;;5073668;28;19943;-64
2021/05/21 04:20:14;;;;;;;;;;;10.80;85.50;;;;;;5073834;28;19921;-63
2021/05/21 04:22:40;;;;;;;;;;;10.90;85.50;;;;;;5077171;28;19921;-62
2021/05/21 04:25:06;;;;;;;;;;;10.90;85.30;;;;;;5078824;28;19988;-63
2021/05/21 04:27:31;;;;;;;;;;;10.90;85.00;;;;;;5075517;28;19947;-63
2021/05/21 04:29:57;;;;;;;;;;;11.00;84.90;;;;;;5073921;28;19960;-62
2021/05/21 04:32:22;;;;;;;;;;;11.00;84.80;;;;;;5074458;28;20368;-64
2021/05/21 04:34:49;;;;;;;;;;;11.00;84.60;;;;;;5073184;28;19921;-63
2021/05/21 04:37:14;;;;;;;;;;;11.00;84.60;;;;;;5073805;28;20337;-62
2021/05/21 04:39:40;;;;;;;;;;;11.10;84.60;;;;;;5074410;28;19920;-62
2021/05/21 04:42:05;;;;;;;;;;;11.20;85.00;;;;;;5074829;28;20379;-62
2021/05/21 04:44:31;;;;;;;;;;;11.30;85.10;;;;;;5074356;28;19916;-62
2021/05/21 04:46:57;;;;;;;;;;;11.40;84.80;;;;;;5074166;28;19920;-62
2021/05/21 04:49:35;;;;;;;;;;;11.50;84.30;;;;;;5074454;28;19923;-62
2021/05/21 04:52:01;;;;;;;;;;;11.50;83.90;;;;;;5071984;28;19916;-62
2021/05/21 04:54:27;;;;;;;;;;;11.60;83.50;;;;;;5073215;28;19935;-62
2021/05/21 04:56:53;;;;;;;;;;;11.60;83.30;;;;;;5072423;28;19920;-62
2021/05/21 04:59:19;;;;;;;;;;;11.60;83.20;;;;;;5073655;28;19920;-63
2021/05/21 05:01:44;;;;;;;;;;;11.60;83.00;;;;;;5074210;28;20415;-62
2021/05/21 05:04:10;;;;;;;;;;;11.60;82.90;;;;;;5073492;28;19917;-63
2021/05/21 05:06:36;;;;;;;;;;;11.60;82.90;;;;;;5073674;28;19916;-62
2021/05/21 05:09:02;;;;;;;;;;;11.70;82.80;;;;;;5073605;28;20357;-62
2021/05/21 05:11:27;;;;;;;;;;;11.60;82.50;;;;;;5073651;28;19966;-62
2021/05/21 05:13:53;;;;;;;;;;;11.60;82.50;;;;;;5073741;28;20372;-63
2021/05/21 05:16:18;;;;;;;;;;;11.60;82.40;;;;;;5074351;28;19925;-62
2021/05/21 05:18:44;;;;;;;;;;;11.70;82.50;;;;;;5074087;28;19917;-62
2021/05/21 05:21:09;;;;;;;;;;;11.70;82.50;;;;;;5074191;28;19917;-62
2021/05/21 05:23:35;;;;;;;;;;;11.80;82.50;;;;;;5071718;28;19956;-62
2021/05/21 05:26:01;;;;;;;;;;;11.90;82.30;;;;;;5073287;28;19916;-65
2021/05/21 05:28:26;;;;;;;;;;;12.10;82.20;;;;;;5072457;28;19923;-63
2021/05/21 05:30:52;;;;;;;;;;;12.20;82.20;;;;;;5073494;28;19924;-63
2021/05/21 05:33:17;;;;;;;;;;;12.30;82.10;;;;;;5073121;28;20019;-63
2021/05/21 05:35:43;;;;;;;;;;;12.40;81.80;;;;;;5072135;28;19962;-63
2021/05/21 05:38:08;;;;;;;;;;;12.50;81.40;;;;;;5053706;28;19920;-63
2021/05/21 05:40:36;;;;;;;;;;;12.60;81.00;;;;;;5073658;28;19974;-63
2021/05/21 05:43:01;;;;;;;;;;;12.60;80.90;;;;;;5072475;28;19920;-63
2021/05/21 05:45:27;;;;;;;;;;;12.70;80.60;;;;;;5073479;28;20289;-63
2021/05/21 05:47:52;;;;;;;;;;;12.80;80.60;;;;;;5073498;28;20011;-63
2021/05/21 05:50:18;;;;;;;;;;;13.00;80.60;;;;;;5073216;28;19916;-63
2021/05/21 05:52:44;;;;;;;;;;;13.10;80.20;;;;;;5073380;28;19925;-63
2021/05/21 05:55:09;;;;;;;;;;;13.10;79.60;;;;;;5071131;28;19920;-63
2021/05/21 05:57:35;;;;;;;;;;;13.10;78.80;;;;;;5072083;28;19917;-63
2021/05/21 06:00:00;;;;;;;;;;;13.00;78.60;;;;;;5068901;28;20340;-63
2021/05/21 06:02:26;;;;;;;;;;;12.90;78.40;;;;;;5068156;28;20364;-63
2021/05/21 06:04:52;;;;;;;;;;;12.80;78.30;;;;;;5068408;28;19917;-63
2021/05/21 06:07:17;;;;;;;;;;;12.70;78.40;;;;;;5073321;28;19920;-63
2021/05/21 06:09:43;;;;;;;;;;;12.70;78.50;;;;;;5072771;28;19916;-65
2021/05/21 06:12:09;;;;;;;;;;;12.60;78.40;;;;;;5073123;28;19924;-64
2021/05/21 06:14:35;;;;;;;;;;;12.60;78.40;;;;;;5071842;28;20418;-64
2021/05/21 06:17:01;;;;;;;;;;;12.60;78.10;;;;;;5073175;28;20007;-63
2021/05/21 06:19:26;;;;;;;;;;;12.60;78.00;;;;;;5073112;28;19984;-63
2021/05/21 06:21:52;;;;;;;;;;;12.60;78.10;;;;;;5072439;28;19931;-63
2021/05/21 06:24:17;;;;;;;;;;;12.60;78.10;;;;;;5073261;28;20395;-63
2021/05/21 06:27:14;;;;;;;;;;;12.60;78.00;;;;;;5076774;28;20488;-63
2021/05/21 06:29:29;;;;;;;;;;;12.70;78.10;;;;;;5081344;28;19916;-63
2021/05/21 06:31:55;;;;;;;;;;;12.80;78.30;;;;;;5081791;28;19916;-63
2021/05/21 06:34:21;;;;;;;;;;;13.00;78.20;;;;;;5070677;28;20427;-63
2021/05/21 06:36:47;;;;;;;;;;;13.10;77.90;;;;;;5071312;28;20365;-63
2021/05/21 06:39:13;;;;;;;;;;;13.30;77.90;;;;;;5071718;28;19923;-64
2021/05/21 06:41:38;;;;;;;;;;;13.40;77.60;;;;;;5071839;28;19931;-63
2021/05/21 06:44:04;;;;;;;;;;;13.70;77.70;;;;;;5071229;28;19921;-63
2021/05/21 06:46:29;;;;;;;;;;;13.80;77.10;;;;;;5072045;28;19923;-63
2021/05/21 06:48:55;;;;;;;;;;;13.80;76.30;;;;;;5072533;28;19925;-63
2021/05/21 06:51:21;;;;;;;;;;;13.70;75.80;;;;;;5071862;28;19934;-63
2021/05/21 06:53:47;;;;;;;;;;;13.60;75.70;;;;;;5071258;28;19942;-63
2021/05/21 06:56:14;;;;;;;;;;;13.60;75.90;;;;;;5072387;28;19920;-63
2021/05/21 06:58:40;;;;;;;;;;;13.70;76.40;;;;;;5071718;28;19920;-63
2021/05/21 07:01:06;;;;;;;;;;;14.20;79.30;;;;;;5072130;28;20276;-63
2021/05/21 07:03:31;;;;;;;;;;;14.70;77.90;;;;;;5070923;28;19942;-64
2021/05/21 07:05:57;;;;;;;;;;;15.10;76.40;;;;;;5072351;28;20277;-63
2021/05/21 07:08:23;;;;;;;;;;;15.50;76.90;;;;;;5072145;28;20538;-61
2021/05/21 07:10:48;;;;;;;;;;;16.00;76.40;;;;;;5068848;28;19939;-62
2021/05/21 07:13:15;;;;;;;;;;;16.40;75.20;;;;;;5071210;28;19943;-61
2021/05/21 07:15:41;;;;;;;;;;;16.40;73.40;;;;;;5071521;28;20357;-61
2021/05/21 07:18:08;;;;;;;;;;;16.30;72.40;;;;;;5071257;28;20007;-61
2021/05/21 07:20:34;;;;;;;;;;;16.10;71.20;;;;;;5071784;28;19920;-61
2021/05/21 07:23:00;;;;;;;;;;;15.80;70.80;;;;;;5068811;28;20082;-60
2021/05/21 07:25:25;;;;;;;;;;;15.50;71.10;;;;;;5071569;28;20327;-60
2021/05/21 07:27:51;;;;;;;;;;;15.50;71.70;;;;;;5071604;28;19923;-60
2021/05/21 07:30:17;;;;;;;;;;;15.70;72.20;;;;;;5070828;28;19917;-60
2021/05/21 07:32:43;;;;;;;;;;;16.10;73.30;;;;;;5070544;28;19959;-62
2021/05/21 07:35:09;;;;;;;;;;;17.00;74.70;;;;;;5070177;28;19952;-63
2021/05/21 07:37:35;;;;;;;;;;;17.90;74.40;;;;;;5070753;28;19959;-62
2021/05/21 07:40:02;;;;;;;;;;;19.40;76.70;;;;;;5071190;28;20323;-62
2021/05/21 07:42:28;;;;;;;;;;;20.50;71.30;;;;;;5070633;28;19923;-63
2021/05/21 07:44:54;;;;;;;;;;;21.30;68.80;;;;;;5070217;28;20293;-62
2021/05/21 07:47:20;;;;;;;;;;;21.80;64.30;;;;;;5069341;28;19916;-63
2021/05/21 07:49:46;;;;;;;;;;;22.00;62.70;;;;;;5069361;28;20311;-63
2021/05/21 07:52:12;;;;;;;;;;;23.10;64.20;;;;;;5070437;28;20018;-62
2021/05/21 07:54:38;;;;;;;;;;;25.40;65.30;;;;;;5069576;28;20026;-62
2021/05/21 07:57:05;;;;;;;;;;;27.10;58.40;;;;;;5070145;28;20076;-61
2021/05/21 07:59:31;;;;;;;;;;;27.80;54.40;;;;;;5070587;28;19923;-61
2021/05/21 08:01:57;;;;;;;;;;;27.90;50.60;;;;;;5070297;28;19925;-61
2021/05/21 08:04:23;;;;;;;;;;;28.30;49.30;;;;;;5069534;28;19922;-61
2021/05/21 08:06:49;;;;;;;;;;;29.50;49.40;;;;;;5069839;28;19917;-61
2021/05/21 08:09:16;;;;;;;;;;;29.10;43.90;;;;;;5071771;28;20525;-61
2021/05/21 08:11:42;;;;;;;;;;;27.60;41.00;;;;;;5087017;28;19917;-60
2021/05/21 08:14:09;;;;;;;;;;;25.60;41.10;;;;;;5074473;28;19974;-61
2021/05/21 08:16:35;;;;;;;;;;;23.80;41.80;;;;;;5082809;28;19928;-60
2021/05/21 08:19:01;;;;;;;;;;;22.40;42.70;;;;;;5071592;28;19925;-63
2021/05/21 08:21:27;;;;;;;;;;;21.00;44.00;;;;;;5067305;28;19928;-62
2021/05/21 08:23:54;;;;;;;;;;;19.90;45.40;;;;;;5094826;28;19921;-73
2021/05/21 08:26:23;;;;;;;;;;;18.90;46.50;;;;;;5067238;28;19939;-71
2021/05/21 08:28:48;;;;;;;;;;;18.10;47.90;;;;;;5071056;28;19917;-71
2021/05/21 08:31:14;;;;;;;;;;;17.20;48.50;;;;;;5070986;28;19917;-71
2021/05/21 08:33:43;;;;;;;;;;;15.70;50.60;;;;;;5073794;28;19920;-71
2021/05/21 08:36:10;;;;;;;;;;;14.40;54.00;;;;;;5053285;28;19924;-72
2021/05/21 08:38:37;;;;;;;;;;;13.50;56.70;;;;;;5070127;28;19958;-73
2021/05/21 08:41:04;;;;;;;;;;;12.90;59.10;;;;;;5069301;28;19917;-72
2021/05/21 08:43:31;;;;;;;;;;;12.50;60.90;;;;;;5071766;28;19923;-72
2021/05/21 08:45:57;;;;;;;;;;;12.30;62.10;;;;;;5073465;28;19946;-64
2021/05/21 08:48:23;;;;;;;;;;;12.20;63.60;;;;;;5078463;28;20019;-63
2021/05/21 08:50:49;;;;;;;;;;;12.20;64.70;;;;;;5078573;28;20003;-63
2021/05/21 08:53:15;;;;;;;;;;;12.30;65.40;;;;;;5084497;28;20002;-63
2021/05/21 08:55:41;;;;;;;;;;;12.50;65.70;;;;;;5073438;28;20434;-63
2021/05/21 08:58:11;;;;;;;;;;;12.70;65.90;;;;;;5085064;28;19921;-64
2021/05/21 09:00:38;;;;;;;;;;;12.90;66.30;;;;;;5083972;28;19916;-64
2021/05/21 09:03:20;;;;;;;;;;;13.20;66.70;;;;;;5079395;28;19916;-63
2021/05/21 09:06:08;;;;;;;;;;;13.30;66.60;;;;;;5090153;28;19970;-65
2021/05/21 09:08:35;;;;;;;;;;;13.60;66.60;;;;;;5083334;28;20390;-64
2021/05/21 09:11:01;;;;;;;;;;;13.90;67.10;;;;;;5080723;28;19923;-61
2021/05/21 09:13:34;;;;;;;;;;;14.20;67.20;;;;;;5074879;28;19916;-61
2021/05/21 09:16:16;;;;;;;;;;;14.40;67.30;;;;;;5072771;28;19920;-61
2021/05/21 09:18:58;;;;;;;;;;;14.70;67.50;;;;;;5070893;28;19923;-62
2021/05/21 09:21:24;;;;;;;;;;;15.00;67.40;;;;;;5075585;28;19934;-62
2021/05/21 09:24:03;;;;;;;;;;;15.20;67.40;;;;;;5072684;28;19920;-62
2021/05/21 09:26:40;;;;;;;;;;;15.40;67.60;;;;;;5073977;28;19917;-62
2021/05/21 09:29:06;;;;;;;;;;;15.70;67.70;;;;;;5074611;28;19927;-62
2021/05/21 09:31:40;;;;;;;;;;;16.20;68.40;;;;;;5075698;28;19946;-62
2021/05/21 09:34:06;;;;;;;;;;;17.10;69.00;;;;;;5073683;28;19920;-63
2021/05/21 09:36:33;;;;;;;;;;;18.30;69.60;;;;;;5056912;28;20367;-61
2021/05/21 09:39:00;;;;;;;;;;;19.90;69.20;;;;;;5074486;28;19912;-62
2021/05/21 09:41:26;;;;;;;;;;;22.20;68.40;;;;;;5075491;28;19956;-63
2021/05/21 09:43:52;;;;;;;;;;;25.30;66.30;;;;;;5066636;28;19924;-63
2021/05/21 09:46:18;;;;;;;;;;;28.60;63.80;;;;;;5072066;28;20324;-63
2021/05/21 09:48:44;;;;;;;;;;;31.40;57.50;;;;;;5074095;28;19927;-62
2021/05/21 09:51:11;;;;;;;;;;;31.80;52.00;;;;;;5075985;28;20534;-60
2021/05/21 09:53:37;;;;;;;;;;;31.00;46.80;;;;;;5069039;28;19923;-60
2021/05/21 09:56:04;;;;;;;;;;;29.70;44.40;;;;;;5073973;28;19916;-60
2021/05/21 09:58:30;;;;;;;;;;;28.60;44.50;;;;;;5072696;28;19916;-61
2021/05/21 10:01:05;;;;;;;;;;;29.70;46.30;;;;;;5074326;28;19959;-60
2021/05/21 10:03:31;;;;;;;;;;;31.90;45.50;;;;;;5074340;28;19916;-61
2021/05/21 10:05:57;;;;;;;;;;;33.90;42.80;;;;;;5070165;28;19938;-61
2021/05/21 10:08:23;;;;;;;;;;;35.30;40.50;;;;;;5074392;28;20285;-62
2021/05/21 10:10:50;;;;;;;;;;;36.80;38.80;;;;;;5073885;28;19923;-61
2021/05/21 10:13:16;;;;;;;;;;;38.30;36.90;;;;;;5090711;28;19939;-62
2021/05/21 10:15:42;;;;;;;;;;;39.00;34.70;;;;;;5092365;28;20308;-62
2021/05/21 10:18:10;;;;;;;;;;;39.60;33.40;;;;;;5078976;28;19940;-61
2021/05/21 10:20:36;;;;;;;;;;;40.20;31.50;;;;;;5074374;28;20288;-62
2021/05/21 10:23:02;;;;;;;;;;;40.70;30.60;;;;;;5072241;28;19916;-61
2021/05/21 10:25:31;;;;;;;;;;;41.60;30.30;;;;;;5088582;28;19916;-62
2021/05/21 10:28:01;;;;;;;;;;;42.30;28.70;;;;;;5077564;28;20325;-62
2021/05/21 10:30:26;;;;;;;;;;;42.20;27.50;;;;;;5082963;28;19916;-62
2021/05/21 10:33:12;;;;;;;;;;;41.60;27.00;;;;;;5084223;28;19923;-61
2021/05/21 10:36:15;;;;;;;;;;;41.10;25.90;;;;;;5059616;28;20030;-61
2021/05/21 10:39:05;;;;;;;;;;;40.30;25.70;;;;;;5073515;28;19943;-61
2021/05/21 10:41:56;;;;;;;;;;;39.80;25.20;;;;;;5059224;28;19946;-61
2021/05/21 10:44:29;;;;;;;;;;;39.10;23.80;;;;;;5066869;28;19928;-61
2021/05/21 10:47:14;;;;;;;;;;;37.10;24.00;;;;;;5070472;28;19916;-61
2021/05/21 10:49:40;;;;;;;;;;;35.80;25.10;;;;;;5067586;28;19916;-61
2021/05/21 10:52:06;;;;;;;;;;;36.00;25.30;;;;;;5066351;28;19958;-61
2021/05/21 10:54:36;;;;;;;;;;;36.40;24.90;;;;;;5061652;28;20339;-60
2021/05/21 10:57:16;;;;;;;;;;;36.60;24.80;;;;;;5057094;28;19924;-61
2021/05/21 10:59:52;;;;;;;;;;;36.70;24.40;;;;;;5060427;28;19924;-61
2021/05/21 11:02:18;;;;;;;;;;;35.40;23.60;;;;;;5030850;28;19977;-61
2021/05/21 11:04:44;;;;;;;;;;;34.00;24.40;;;;;;5030765;28;20027;-61
2021/05/21 11:07:10;;;;;;;;;;;33.20;25.60;;;;;;5048319;28;20011;-61
2021/05/21 11:09:43;;;;;;;;;;;33.60;26.00;;;;;;5051087;28;19924;-61
2021/05/21 11:12:09;;;;;;;;;;;33.60;26.10;;;;;;5051203;28;19925;-60
2021/05/21 11:14:39;;;;;;;;;;;32.80;25.10;;;;;;5049183;28;20329;-61
2021/05/21 11:17:07;;;;;;;;;;;32.50;26.20;;;;;;5059411;28;19921;-61
2021/05/21 11:19:33;;;;;;;;;;;32.90;26.30;;;;;;5060209;28;19916;-61
2021/05/21 11:22:19;;;;;;;;;;;32.90;25.30;;;;;;5049006;28;19967;-61
2021/05/21 11:24:46;;;;;;;;;;;31.60;25.40;;;;;;5032039;28;20324;-60
2021/05/21 11:27:12;;;;;;;;;;;30.90;25.70;;;;;;5056544;28;19917;-60
2021/05/21 11:29:41;;;;;;;;;;;29.50;25.50;;;;;;5050803;28;19954;-60
2021/05/21 11:32:07;;;;;;;;;;;27.70;26.10;;;;;;5049454;28;20010;-60
2021/05/21 11:34:33;;;;;;;;;;;25.80;27.40;;;;;;5049476;28;19975;-60
2021/05/21 11:36:58;;;;;;;;;;;24.40;28.40;;;;;;5050394;28;20330;-60
2021/05/21 11:39:26;;;;;;;;;;;23.30;29.60;;;;;;5029657;28;19929;-60
2021/05/21 11:41:53;;;;;;;;;;;22.40;30.40;;;;;;5047840;28;20019;-60
2021/05/21 11:44:19;;;;;;;;;;;21.60;31.60;;;;;;5047562;28;19928;-60
2021/05/21 11:46:46;;;;;;;;;;;21.00;32.70;;;;;;5046493;28;19928;-60
2021/05/21 11:49:18;;;;;;;;;;;20.80;33.80;;;;;;5050098;28;20448;-60
2021/05/21 11:51:44;;;;;;;;;;;20.90;34.30;;;;;;5050541;28;19920;-63
2021/05/21 11:54:10;;;;;;;;;;;21.00;34.20;;;;;;5061667;28;19920;-63
2021/05/21 11:56:36;;;;;;;;;;;20.80;34.00;;;;;;5059831;28;20324;-61
2021/05/21 11:59:02;;;;;;;;;;;20.40;34.30;;;;;;5090539;28;19920;-61
2021/05/21 12:01:28;;;;;;;;;;;19.90;35.10;;;;;;5089266;28;19962;-60
2021/05/21 12:03:54;;;;;;;;;;;19.50;35.80;;;;;;5089418;28;20007;-60
2021/05/21 12:06:19;;;;;;;;;;;19.10;36.60;;;;;;5071994;28;20484;-62
2021/05/21 12:08:47;;;;;;;;;;;18.70;37.50;;;;;;5089504;28;19924;-61
2021/05/21 12:11:14;;;;;;;;;;;18.40;38.50;;;;;;5090501;28;19916;-60
2021/05/21 12:13:40;;;;;;;;;;;18.20;39.50;;;;;;5089261;28;19919;-60
2021/05/21 12:16:09;;;;;;;;;;;18.00;39.90;;;;;;5090229;28;20487;-60
2021/05/21 12:18:35;;;;;;;;;;;17.90;40.70;;;;;;5089803;28;19920;-60
2021/05/21 12:21:01;;;;;;;;;;;17.90;41.20;;;;;;5085761;28;20273;-60
2021/05/21 12:23:33;;;;;;;;;;;18.20;42.10;;;;;;5049882;28;19925;-62
2021/05/21 12:25:59;;;;;;;;;;;18.60;42.20;;;;;;5068525;28;19917;-63
2021/05/21 12:28:25;;;;;;;;;;;18.90;41.90;;;;;;5050965;28;19964;-61
2021/05/21 12:30:51;;;;;;;;;;;19.20;41.30;;;;;;5069827;28;20010;-60
2021/05/21 12:33:17;;;;;;;;;;;19.30;41.30;;;;;;5072005;28;19996;-62
2021/05/21 12:35:43;;;;;;;;;;;19.60;41.30;;;;;;5073875;28;20335;-59
2021/05/21 12:38:10;;;;;;;;;;;20.10;41.20;;;;;;5055984;28;19996;-62
2021/05/21 12:40:49;;;;;;;;;;;20.70;41.00;;;;;;5073377;28;19917;-62
2021/05/21 12:43:16;;;;;;;;;;;21.00;40.20;;;;;;5054981;28;19932;-63
2021/05/21 12:45:57;;;;;;;;;;;21.10;39.70;;;;;;5074035;28;19931;-64
2021/05/21 12:48:42;;;;;;;;;;;21.10;39.60;;;;;;5073770;28;20288;-64
2021/05/21 12:51:09;;;;;;;;;;;21.10;39.80;;;;;;5073262;28;19935;-64
2021/05/21 12:53:35;;;;;;;;;;;21.30;39.80;;;;;;5072827;28;19981;-63
2021/05/21 12:56:01;;;;;;;;;;;21.50;39.80;;;;;;5071101;28;20382;-64
2021/05/21 12:58:27;;;;;;;;;;;21.80;39.10;;;;;;5072161;28;19928;-64
2021/05/21 13:00:52;;;;;;;;;;;21.90;38.70;;;;;;5072115;28;20342;-64
2021/05/21 13:03:20;;;;;;;;;;;21.80;38.40;;;;;;5072744;28;19956;-63
2021/05/21 13:05:46;;;;;;;;;;;21.50;38.10;;;;;;5073746;28;19917;-63
2021/05/21 13:08:11;;;;;;;;;;;20.90;38.10;;;;;;5071027;28;19924;-64
2021/05/21 13:10:38;;;;;;;;;;;20.60;38.70;;;;;;5089817;28;19920;-63
2021/05/21 13:13:04;;;;;;;;;;;20.20;39.10;;;;;;5076136;28;19970;-63
2021/05/21 13:15:30;;;;;;;;;;;19.90;40.20;;;;;;5087352;28;19932;-61
2021/05/21 13:18:01;;;;;;;;;;;19.70;40.30;;;;;;5081940;28;19942;-64
2021/05/21 13:20:29;;;;;;;;;;;19.50;40.60;;;;;;5071508;28;20054;-64
2021/05/21 13:22:55;;;;;;;;;;;19.40;40.90;;;;;;5072755;28;19960;-61
2021/05/21 13:25:22;;;;;;;;;;;19.20;41.20;;;;;;5075913;28;20372;-61
2021/05/21 13:27:49;;;;;;;;;;;19.10;41.70;;;;;;5074481;28;20383;-61
2021/05/21 13:30:15;;;;;;;;;;;19.00;42.10;;;;;;5066547;28;19929;-63
2021/05/21 13:32:41;;;;;;;;;;;19.10;42.40;;;;;;5076194;28;19930;-64
2021/05/21 13:35:08;;;;;;;;;;;19.20;42.70;;;;;;5079641;28;20011;-63
2021/05/21 13:37:33;;;;;;;;;;;19.30;42.70;;;;;;5075543;28;19917;-64
2021/05/21 13:39:59;;;;;;;;;;;19.20;42.60;;;;;;5072287;28;19923;-63
2021/05/21 13:42:25;;;;;;;;;;;19.10;42.80;;;;;;5072030;28;20395;-64
2021/05/21 13:44:50;;;;;;;;;;;19.00;43.10;;;;;;5070566;28;20309;-65
2021/05/21 13:47:16;;;;;;;;;;;19.20;43.20;;;;;;5072770;28;20676;-64
2021/05/21 13:49:42;;;;;;;;;;;19.00;43.30;;;;;;5072444;28;20223;-64
2021/05/21 13:52:08;;;;;;;;;;;19.10;43.30;;;;;;5072250;28;19924;-65
2021/05/21 13:54:33;;;;;;;;;;;19.20;42.90;;;;;;5071156;28;19924;-65
2021/05/21 13:57:00;;;;;;;;;;;19.20;42.40;;;;;;5071803;28;20388;-64
2021/05/21 13:59:26;;;;;;;;;;;18.90;42.10;;;;;;5074744;28;19931;-64
2021/05/21 14:01:52;;;;;;;;;;;18.50;42.10;;;;;;5076094;28;19912;-61
2021/05/21 14:04:18;;;;;;;;;;;18.20;42.80;;;;;;5073815;28;19971;-61
2021/05/21 14:06:44;;;;;;;;;;;18.00;43.30;;;;;;5071991;28;20035;-61
2021/05/21 14:09:10;;;;;;;;;;;17.90;43.90;;;;;;5069286;28;20387;-62
2021/05/21 14:11:36;;;;;;;;;;;17.90;44.30;;;;;;5071842;28;19916;-62
2021/05/21 14:14:03;;;;;;;;;;;17.90;43.80;;;;;;5075024;28;19912;-62
2021/05/21 14:16:28;;;;;;;;;;;17.60;43.40;;;;;;5074258;28;19925;-61
2021/05/21 14:18:54;;;;;;;;;;;17.40;43.70;;;;;;5069507;28;19924;-62